x

8454049 - Quonset Point, Ri (qptr1) Weather Station

7:54 - Thu 30th Jun 2016 All times are EDT. -4 hours from GMT.

  • Wind
    6mph, 7mph gusts
  • Sea Temp 69°f
  • Ar Temp 72°f
  • Sea Pressure 1015.1mb
  • 8454049 - Quonset Point, Ri
  • 8454049 - Quonset Point, Ri

More Historic Weather Station data

Upgrade to MSW Pro to gain access to the past 30 days of data for over 8000 Wavebouys and Weather Stations around the globe.

Join Pro

Comparision Forecast

View Surf forecast
   
Qui 06/30 7:54 6 7 mph 1015.1mb 69f 72f
7:48 6 7 mph 1015mb 69f 72f
7:42 6 9 mph 1015mb 69f 72f
7:36 5 8 mph 1014.9mb 69f 71f
7:30 6 8 mph 1014.8mb 69f 71f
7:24 7 9 mph 1014.7mb 69f 71f
7:18 7 9 mph 1014.6mb 69f 70f
7:12 8 10 mph 1014.5mb 69f 70f
7:06 6 9 mph 1014.4mb 69f 70f
7:00 6 9 mph 1014.3mb 69f 69f
6:54 8 9 mph 1014.3mb 69f 69f
6:48 6 10 mph 1014.2mb 69f 69f
6:42 7 9 mph 1014.3mb 69f 68f
6:36 7 9 mph 1014.3mb 69f 68f
6:30 7 8 mph 1014.3mb 69f 68f
6:24 6 8 mph 1014.2mb 69f 68f
6:18 6 8 mph 1014.2mb 69f 68f
6:12 6 9 mph 1014.1mb 69f 67f
6:06 7 9 mph 1014.1mb 69f 67f
6:00 6 9 mph 1014mb 69f 67f
5:54 7 8 mph 1013.9mb 69f 67f
5:48 7 10 mph 1013.9mb 69f 67f
5:42 6 8 mph 1013.8mb 69f 67f
5:36 6 7 mph 1013.7mb 69f 67f
5:30 5 7 mph 1013.7mb 69f 67f
5:24 3 6 mph 1013.6mb 69f 67f
5:18 3 5 mph 1013.6mb 69f 67f
5:12 3 5 mph 1013.6mb 69f 66f
5:06 3 6 mph 1013.5mb 69f 67f
5:00 5
mph
1013.4mb 69f 67f
4:54 2 3 mph 1013.3mb 69f 67f
4:48 2 5 mph 1013.2mb 69f 67f
4:42 3 5 mph 1013.2mb 69f 67f
4:36 3 6 mph 1013.1mb 69f 67f
4:30 3 5 mph 1013.1mb 69f 67f
4:24 2 3 mph 1013mb 69f 67f
4:18 5 6 mph 1012.9mb 69f 67f
4:12 3 6 mph 1012.8mb 69f 68f
4:06 5 7 mph 1012.8mb 69f 68f
4:00 5 6 mph 1012.8mb 69f 68f
3:54 2 3 mph 1012.8mb 69f 68f
3:48 2 3 mph 1012.7mb 69f 68f
3:42 2 3 mph 1012.6mb 69f 68f
3:36 1 3 mph 1012.6mb 69f 68f
3:30 2 3 mph 1012.6mb 69f 69f
3:24 3
mph
1012.5mb 69f 69f
3:18 2 5 mph 1012.5mb 69f 69f
3:12 3 5 mph 1012.5mb 69f 69f
3:06 5 6 mph 1012.4mb 69f 69f
3:00 3 5 mph 1012.4mb 69f 69f
2:54 3 6 mph 1012.4mb 69f 69f
2:48 5 6 mph 1012.4mb 69f -
2:42 5 6 mph 1012.3mb 70f -
2:36 5 8 mph 1012.4mb 70f -
2:30 6 8 mph 1012.4mb 70f 70f
2:24 6 9 mph 1012.4mb 70f 70f
2:18 5
mph
- 70f 70f
2:12 3 6 mph - 70f 70f
2:06 6 7 mph - 70f 70f
2:00 5 7 mph 1012.5mb 70f 71f
1:54 6 7 mph 1012.5mb 70f 70f
1:48 5 7 mph 1012.5mb - -
1:42 2 3 mph 1012.5mb - -
1:36 1 2 mph 1012.4mb - -
1:30 2 3 mph 1012.3mb 70f 70f
1:24 2 5 mph 1012.3mb 70f 70f
1:18 2 3 mph 1012.3mb 70f 70f
1:12 1 3 mph 1012.3mb 70f 70f
1:06 3 6 mph 1012.3mb 70f 70f
1:00  -  2 mph 1012.3mb 70f 69f
12:54  -  3 mph 1012.3mb 70f 70f
12:48 2 3 mph 1012.3mb 70f 70f
12:42 2
mph
1012.3mb 70f 70f
12:36 2 3 mph 1012.4mb 70f 70f
12:30 3
mph
1012.4mb 70f 70f
12:24  -  3 mph 1012.3mb 70f 70f
12:18 3 6 mph 1012.3mb 70f 70f
12:12 5 6 mph 1012.2mb 70f 70f
12:06 5 6 mph 1012.3mb 70f 70f
12:00 5
mph
1012.3mb 70f 70f
Qua 06/29 11:54 3 5 mph 1012.3mb 71f 70f
11:48 3 6 mph 1012.3mb 71f 70f
11:42 5 6 mph 1012.4mb 71f 70f
11:36 2 3 mph 1012.3mb 71f 70f
11:30 2 6 mph 1012.4mb 71f 70f
11:24 5 8 mph 1012.4mb 71f 70f
11:18 6 7 mph 1012.3mb - -
11:12 6 8 mph 1012.2mb - -
11:06 8 9 mph 1012.2mb - -
11:00  -  mph 1012.2mb 71f -
10:54  -  mph 1012.2mb 71f -
10:48  -  mph - 71f -
10:42  -  mph - 71f -
10:36  -  mph - 70f -
10:30  -  mph - 70f -
10:24  -  mph - 70f -
10:18  -  mph 1012.1mb - -
10:12  -  mph 1012.1mb - -
10:06  -  mph 1012.1mb - -
10:00  -  mph - 70f -
9:54  -  mph - 70f -
9:48 7
mph
- 71f -
9:42 6 7 mph - 71f -
9:36 6 7 mph - 71f -
9:30  -  mph 1011.8mb 71f -
9:24  -  mph 1011.7mb 71f -
9:18  -  mph 1011.5mb 70f -
9:12  -  mph 1011.6mb 70f -
9:06  -  mph 1011.5mb 70f -
9:00  -  mph - 70f -
8:54  -  mph - 70f -
8:48  -  mph - 70f 69f
8:42  -  mph - 70f 69f
8:36  -  mph - 70f 69f
8:30  -  mph - 70f 69f
8:24  -  mph - 70f 69f
8:18  -  mph 1011.3mb 70f 69f
8:12  -  mph 1011.3mb 70f 69f
8:06  -  mph 1011.3mb 69f 69f
8:00  -  mph - 69f 69f
7:54  -  mph - 69f 69f
7:48  -  mph - 69f 70f
7:42  -  mph - 69f 70f
7:36  -  mph - 69f 70f
7:30  -  mph 1011.3mb 69f -
7:24  -  mph 1011.3mb 69f -
7:18  -  mph 1011.3mb 69f -
7:12  -  mph 1011.2mb 69f -
7:06  -  mph 1011.2mb 69f -
7:00  -  mph 1011.2mb 69f -
6:54  -  mph 1011.1mb 69f -
6:48  -  mph 1011.2mb 69f -
6:42  -  mph 1011mb 69f -
6:36  -  mph 1010.9mb 70f -
6:30  -  mph - 70f -
6:24  -  mph - 70f -
6:18 14 15 mph - - -
6:12 10 14 mph - - -
6:06 13 15 mph - - -
6:00 13 17 mph - - -
5:54 14 18 mph - - -
5:48  -  mph - 70f -
5:42  -  mph - 70f -
5:36  -  mph - 70f -
5:30 16 18 mph 1010.8mb 70f 71f
5:24 16 18 mph 1010.8mb 70f 71f
5:18 15 20 mph 1010.8mb 70f 70f
5:12 17 20 mph 1010.8mb 70f 70f
5:06 16 20 mph 1010.8mb 70f 70f
5:00 16 20 mph 1010.8mb 70f 70f
4:54 17 21 mph 1010.8mb 70f 70f
4:48 18 21 mph 1010.8mb 70f 70f
4:42 17 22 mph 1010.9mb 70f 70f
4:36 20 22 mph 1010.9mb 70f 70f
4:30 18 21 mph 1010.9mb 70f 70f
4:24 18 23 mph 1010.9mb 70f 70f
4:18 18 21 mph 1010.7mb 70f 70f
4:12 18 21 mph 1010.8mb 70f 70f
4:06 18 21 mph 1010.9mb 70f 70f
4:00 18 21 mph 1010.8mb 70f 70f
3:54 18 21 mph 1010.8mb 70f 70f
3:48 18 20 mph 1010.9mb 71f 70f
3:42 17 20 mph 1011mb 71f 70f
3:36 17 20 mph 1010.9mb 71f 70f
3:30 16 20 mph 1011mb 71f 70f
3:24 18 20 mph 1010.9mb 70f 69f
3:18 18 21 mph 1010.9mb 70f 70f
3:12 17 18 mph 1010.8mb 70f 70f
3:06 16 21 mph 1010.8mb 70f 70f
3:00 18 21 mph 1010.8mb 70f 70f
2:54 16 17 mph 1010.8mb 70f 70f
2:48 17 20 mph 1010.9mb 70f 70f
2:42 18 20 mph 1010.8mb 70f 70f
2:36 15 18 mph 1010.7mb 70f 70f
2:30 18 21 mph 1010.7mb 70f 69f
2:24 18 21 mph 1010.8mb 70f 69f
2:18 18 21 mph 1010.8mb 70f 69f
2:12 18 21 mph 1010.9mb 70f 69f
2:06 18 21 mph 1010.9mb 70f 69f
2:00 18 20 mph 1011mb 70f 69f
1:54 17 18 mph 1011.1mb 70f 69f
1:48 16 20 mph 1011.1mb 70f 69f
1:42 17 18 mph 1011.1mb 70f 69f
1:36 17 18 mph 1011.1mb 70f 70f
1:30 16 17 mph 1011.2mb 69f 70f
1:24 15 16 mph 1011.2mb 69f 70f
1:18 15 16 mph 1011.2mb 69f 70f
1:12 14
mph
1011.2mb 69f 70f
1:06 13 14 mph 1011.2mb 69f 70f
1:00 14
mph
1011.2mb 69f 70f
12:54 14 15 mph 1011.2mb 69f 70f
12:48 14 15 mph 1011.3mb 69f 70f
12:42 13 14 mph 1011.4mb 69f 69f
12:36 13 15 mph 1011.4mb 69f 70f
12:30 14 15 mph 1011.5mb 69f 70f
12:24 13 14 mph 1011.6mb 69f 70f
12:18 11 13 mph 1011.7mb 69f 70f
12:12 11 13 mph 1011.7mb 69f 70f
12:06 13 14 mph 1011.7mb 69f 70f
12:00 11 14 mph 1011.7mb 69f 69f
11:54 13 14 mph 1011.7mb 69f 69f
11:48 13 14 mph 1011.7mb 69f 69f
11:42 10 13 mph 1011.7mb 69f 69f
11:36 10 14 mph 1011.7mb 69f 69f
11:30 11 14 mph 1011.7mb 69f 69f
11:24 13 14 mph 1011.8mb 69f 69f
11:18 11 13 mph 1011.8mb 69f 69f
11:12 11 14 mph 1011.9mb 69f 69f
11:06 13 14 mph 1011.9mb 69f 69f
11:00 11 13 mph 1012mb 69f 69f
10:54 11 13 mph 1012.1mb 69f 69f
10:48 11 13 mph 1012.1mb 69f 69f
10:42 10 11 mph 1012mb 69f 69f
10:36 10 11 mph 1012mb 69f 69f
10:30 9 10 mph 1012.1mb 69f 69f
10:24 9 10 mph 1012.2mb 69f 69f
10:18 10 13 mph 1012.2mb 69f 69f
10:12 10 13 mph 1012.2mb 69f 69f
10:06 11 13 mph 1012.3mb 69f 69f
10:00 11
mph
1012.3mb 69f 69f
9:54 11 13 mph 1012.3mb 69f 69f
9:48 11 13 mph 1012.2mb 69f 69f
9:42 10 11 mph 1012.2mb 69f 69f
9:36 9 10 mph 1012.2mb 69f 69f
9:30 8 9 mph 1012.2mb 69f 69f
9:24 7 9 mph 1012.3mb 69f 69f
9:18 8 9 mph 1012.3mb 69f 68f
9:12 7 9 mph 1012.3mb 69f 68f
9:06 7 8 mph 1012.3mb 69f 68f
9:00 7 8 mph 1012.4mb 69f 68f
8:54 7 8 mph 1012.4mb 69f 69f
8:48 8 9 mph 1012.3mb 69f 68f
8:42 8 9 mph 1012.2mb 69f 68f
8:36 9 10 mph 1012.2mb 69f 68f
8:30 7 9 mph 1012.2mb 69f 68f
8:24 8 9 mph 1012.2mb 69f 68f
8:18 7 8 mph 1012.3mb 69f 68f
8:12 7 8 mph 1012.3mb 69f 68f
8:06 7 8 mph 1012.2mb 69f 68f
8:00 7 8 mph 1012.2mb 69f 68f
7:54 7 8 mph 1012.1mb 69f 68f
7:48 8 9 mph 1012.1mb 69f 68f
7:42 7 8 mph 1012mb 69f 68f
7:36 7 9 mph 1012.1mb 69f 68f
7:30 8 9 mph 1012.1mb 69f 68f
7:24 8
mph
1012.1mb 69f 68f
7:18 6 8 mph 1012.1mb 69f 68f
7:12 6 7 mph 1012.1mb 69f 68f
7:06 6 7 mph 1012.1mb 68f 68f
7:00 7
mph
1012mb 68f 68f
6:54 7 8 mph 1012mb 68f 68f
6:48 7 9 mph 1012mb 68f 68f
6:42 8 9 mph 1012mb 68f 68f
6:36 8 9 mph 1012mb 68f 68f
6:30 8 9 mph 1012mb 68f 68f
6:24 8 9 mph 1012.1mb 68f 68f
6:18 9 10 mph 1012.1mb 68f 68f
6:12 9 10 mph 1012.1mb 68f 68f
6:06 10 11 mph 1012.1mb 68f 68f
6:00 9 10 mph 1012.1mb 68f 68f
5:54 9 11 mph 1012mb 68f 68f
5:48 9 10 mph 1012mb 68f 68f
5:42 8
mph
1011.9mb 68f 68f
5:36 6 7 mph 1011.9mb 69f 68f
5:30 6
mph
1012mb 69f 68f
5:24 6 8 mph 1012mb 69f 68f
5:18 7 9 mph 1011.9mb 69f 68f
5:12 8 10 mph 1012mb 69f 68f
5:06 9 10 mph 1012mb 69f 68f
5:00 9 10 mph 1012mb 69f 68f
4:54 9
mph
1012.1mb 69f 68f
4:48 8 9 mph 1012.1mb 69f 68f
4:42 7 9 mph 1012.1mb 69f 68f
4:36 8 11 mph 1012mb 69f 68f
4:30 10 13 mph 1012mb 69f 68f
4:24 11 14 mph 1012.1mb 69f 68f
4:18 13 14 mph 1012.2mb 69f 68f
4:12 11 13 mph 1012.2mb 69f 68f
4:06 11 13 mph 1012.2mb 69f 68f
4:00 11 13 mph 1012.2mb 69f 68f
3:54 10 13 mph 1012.2mb 69f 68f
3:48 10 11 mph 1012.1mb 69f 68f
3:42 9 11 mph 1012.1mb 69f 68f
3:36 10 11 mph 1012.1mb 70f 68f
3:30 11 14 mph 1012.1mb 70f 68f
3:24 11 13 mph 1012.1mb 70f 68f
3:18 10 11 mph 1012.1mb 70f 68f
3:12 10 11 mph 1012mb 70f 68f
3:06 10 13 mph 1012.1mb 70f 68f
3:00 9 11 mph 1012.1mb 70f 68f
2:54 7 8 mph 1012.2mb 70f 68f
2:48 7 8 mph 1012.2mb 70f 68f
2:42 7 9 mph 1012.2mb 70f 68f
2:36 8 10 mph 1012.3mb 69f 68f
2:30 10
mph
1012.3mb 69f 67f
2:24 9 10 mph 1012.3mb 69f 67f
2:18 9 10 mph 1012.3mb 69f 67f
2:12 9 10 mph 1012.4mb 69f 67f
2:06 8 9 mph 1012.4mb 69f 67f
2:00 9 10 mph 1012.5mb 69f 67f
1:54 9 10 mph 1012.5mb 69f 67f
1:48  -  mph 1012.6mb 69f 67f
1:42  -  mph 1012.6mb 69f 67f
1:36  -  mph 1012.6mb 69f 67f
1:30 9 11 mph 1012.7mb 69f 67f
1:24 10 13 mph 1012.7mb 69f 67f
1:18 11 14 mph 1012.8mb 69f 67f
1:12 14 16 mph 1012.9mb 69f 67f
1:06 14 17 mph 1012.9mb 69f 67f
1:00 15 18 mph 1013mb 68f 67f
12:54 17 18 mph 1013mb 68f 67f
12:48 15 20 mph 1013.1mb 68f 68f
12:42 18 21 mph 1013.1mb 68f 68f
12:36 14 17 mph 1013.3mb 68f 68f
12:30 14 18 mph 1013.4mb 68f 68f
12:24 14 16 mph 1013.4mb 69f 68f
12:18 15 18 mph 1013.4mb 69f 68f
12:12 15 20 mph 1013.3mb 69f 69f
12:06 17 21 mph 1013.3mb 69f 69f
12:00 18 21 mph 1013.3mb 69f 69f
Ter 06/28 11:54 14 18 mph 1013.4mb 69f 69f
11:48  -  mph 1013.4mb 69f 69f
11:42  -  mph 1013.5mb 69f 69f
11:36  -  mph 1013.5mb 69f 69f
11:30 13 14 mph 1013.5mb 69f 69f
11:24 13
mph
1013.5mb 69f 69f
11:18 11 14 mph 1013.5mb 69f 69f
11:12 11 13 mph 1013.5mb 69f 69f
11:06 11 13 mph 1013.6mb 69f 69f
11:00  -  mph 1013.8mb 69f -
10:54  -  mph 1013.7mb 69f -
10:48 11 13 mph - 69f -
10:42 10 11 mph - 69f -
10:36 10 11 mph - 69f -
10:30  -  mph 1013.9mb 69f 68f
10:24  -  mph 1013.9mb 69f 68f
10:18  -  mph 1013.9mb 69f -
10:12  -  mph 1013.7mb 69f -
10:06  -  mph 1013.7mb 69f -
10:00  -  mph 1013.7mb 69f -
9:54  -  mph 1013.8mb 69f -
9:48  -  mph 1014mb 69f -
9:42  -  mph 1014.1mb 69f -
9:36  -  mph 1014.1mb 69f -
9:30  -  mph 1014.3mb 69f -
9:24  -  mph 1014.1mb 69f -
9:18  -  mph 1014.2mb 69f 69f
9:12  -  mph 1014.2mb 69f 69f
9:06  -  mph 1014.1mb 69f 69f
9:00  -  mph - 69f 69f
8:54  -  mph - 69f 69f
8:48  -  mph 1014mb 69f -
8:42  -  mph 1014.1mb 69f -
8:36  -  mph 1013.9mb 69f -
8:30  -  mph - 69f -
8:24  -  mph - 68f -
8:18  -  mph 1014.1mb 69f 69f
8:12  -  mph 1014.2mb 69f 69f
8:06  -  mph 1014.2mb 69f 69f
8:00  -  mph 1014.3mb 69f -
7:54  -  mph 1014.3mb 68f -
7:48  -  mph - 68f -
7:42  -  mph - 69f -
7:36  -  mph - 69f -
7:30  -  mph - 69f -
7:24  -  mph - 68f -
7:18  -  mph 1014.2mb 68f -
7:12  -  mph 1014.2mb 68f -
7:06  -  mph 1014mb 68f -
7:00  -  mph - 68f -
6:54  -  mph - 68f -
6:48  -  mph - 68f -
6:42  -  mph - 68f -
6:36  -  mph - 68f -
6:30  -  mph 1014.1mb 67f -
6:24  -  mph 1014.1mb 67f -
6:18  -  mph - 67f -
6:12  -  mph - 68f -
6:06  -  mph - 68f -
6:00  -  mph 1014.2mb 68f 69f
5:54  -  mph 1014.2mb 68f 69f
5:48  -  mph - 68f 69f
5:42  -  mph - 68f 70f
5:36  -  mph - 68f 70f
5:30 15 17 mph 1014.1mb 68f 70f
5:24 14 16 mph 1014.1mb 68f 70f
5:18 14 16 mph 1014.1mb 68f 70f
5:12 14 15 mph 1014.2mb 68f 69f
5:06 13 15 mph 1014.2mb 68f 70f
5:00 14 15 mph 1014.3mb 68f 70f
4:54 13 15 mph 1014.4mb 68f 70f
4:48 13 15 mph 1014.4mb 68f 70f
4:42 14 15 mph 1014.4mb 68f 70f
4:36 13 14 mph 1014.5mb 68f 70f
4:30 11 14 mph 1014.5mb 68f 70f
4:24 13 14 mph 1014.4mb 68f 69f
4:18 14 15 mph 1014.5mb 68f 69f
4:12 14 16 mph 1014.5mb 69f 69f
4:06 14 15 mph 1014.7mb 69f 69f
4:00 13 14 mph 1014.9mb 69f 69f
3:54 13 14 mph 1014.9mb 69f 69f
3:48 13 14 mph 1015mb 69f 69f
3:42 11 14 mph 1015mb 69f 69f
3:36 11 14 mph 1015mb 69f 69f
3:30 11 14 mph 1014.9mb 69f 69f
3:24 13 15 mph 1015.1mb 69f 69f
3:18 14 15 mph 1015.1mb 69f 69f
3:12 13 15 mph 1015.2mb 69f 69f
3:06 14 15 mph 1015.2mb 69f 69f
3:00 13 14 mph 1015.2mb 69f 69f
2:54 11 15 mph 1015.3mb 69f 69f
2:48 13 16 mph 1015.4mb 69f 69f
2:42 15 16 mph 1015.5mb 69f 69f
2:36 11 13 mph 1015.5mb 69f 69f
2:30 9 10 mph 1015.3mb 69f 69f
2:24 9
mph
1015.3mb 69f 69f
2:18 7 9 mph 1015.3mb 69f 69f
2:12 9 11 mph 1015.4mb 69f 69f
2:06 11 16 mph 1015.5mb 69f 69f
2:00 13 15 mph 1015.5mb 69f 69f
1:54 14
mph
1015.5mb 69f 69f
1:48 14 15 mph 1015.6mb 69f 69f
1:42 11 13 mph 1015.6mb 69f 69f
1:36 11 14 mph 1015.6mb 69f 69f
1:30 11 13 mph 1015.6mb 69f 69f
1:24 10 13 mph 1015.7mb 69f 69f
1:18 10 13 mph 1015.8mb 69f 69f
1:12 11 13 mph 1015.8mb 69f 69f
1:06 11 13 mph 1015.8mb 69f 69f
1:00 10 11 mph 1015.8mb 69f 69f
12:54 9 11 mph 1015.9mb 69f 69f
12:48 10 13 mph 1015.9mb 69f 69f
12:42 10 13 mph 1016mb 69f 69f
12:36 11 14 mph 1016mb 69f 69f
12:30 13 14 mph 1016mb 68f 69f
12:24 11 13 mph 1016mb 68f 69f
12:18 10 14 mph 1016.1mb 68f 69f
12:12 11 14 mph 1016.1mb 68f 68f
12:06 14 16 mph 1016.2mb 68f 68f
12:00 14 15 mph 1016.2mb 68f 69f
11:54 14 16 mph 1016.2mb 68f 69f
11:48 16 17 mph 1016.3mb 68f 69f
11:42 15 16 mph 1016.4mb 68f 69f
11:36 14 16 mph 1016.4mb 68f 69f
11:30 14 15 mph 1016.3mb 68f 69f
11:24 15 16 mph 1016.3mb 68f 69f
11:18 15 16 mph 1016.3mb 68f 69f
11:12 15 17 mph 1016.3mb 68f 69f
11:06 14 16 mph 1016.3mb 68f 69f
11:00 15 16 mph 1016.4mb 68f 69f
10:54 15 16 mph 1016.4mb 68f 69f
10:48 13 14 mph 1016.4mb 68f 69f
10:42 13 15 mph 1016.4mb 68f 69f
10:36 13 14 mph 1016.3mb 68f 69f
10:30 14 16 mph 1016.4mb 68f 69f
10:24 15
mph
1016.4mb 68f 69f
10:18 13 15 mph 1016.4mb 68f 69f
10:12 14 16 mph 1016.5mb 68f 69f
10:06 14 16 mph 1016.5mb 68f 68f
10:00 14 16 mph 1016.5mb 68f 68f
9:54 15 17 mph 1016.5mb 68f 68f
9:48  -  mph 1016.6mb 68f 68f
9:42  -  mph 1016.7mb 68f 68f
9:36  -  mph 1016.7mb 68f 68f
9:30 15 18 mph 1016.7mb 68f 68f
9:24 16 18 mph 1016.8mb 68f 68f
9:18 17 18 mph 1016.8mb 68f 68f
9:12 15 17 mph 1016.8mb 68f 68f
9:06 15 16 mph 1016.8mb 68f 68f
9:00 14 16 mph 1016.8mb 68f 68f
8:54 14 16 mph 1016.7mb 68f 68f
8:48 13 15 mph 1016.7mb 68f 68f
8:42 13 14 mph 1016.8mb 68f 68f
8:36 13 14 mph 1016.7mb 68f 68f
8:30 14
mph
1016.7mb 68f 68f
8:24 13 14 mph 1016.7mb 68f 68f
8:18 11 14 mph 1016.6mb 68f 68f
8:12 11 13 mph 1016.6mb 68f 68f
8:06 10 11 mph 1016.6mb 68f 68f
8:00 10 13 mph 1016.7mb 68f 68f
7:54 10 13 mph 1016.7mb 68f 68f
7:48 11 13 mph 1016.6mb 68f 68f
7:42 10 13 mph 1016.6mb 68f 68f
7:36 10 13 mph 1016.6mb 68f 68f
7:30 10 13 mph 1016.5mb 68f 68f
7:24 11 14 mph 1016.4mb 68f 68f
7:18 13 14 mph 1016.4mb 68f 68f
7:12 11 14 mph 1016.4mb 68f 68f
7:06 11 13 mph 1016.5mb 67f 68f
7:00 9 10 mph 1016.5mb 67f -
6:54 9 11 mph 1016.5mb 67f -
6:48 7 8 mph 1016.4mb 67f -
6:42 6 7 mph 1016.4mb 67f -
6:36 7 9 mph 1016.3mb 67f -
6:30 9 10 mph 1016.2mb 67f 68f
6:24 10 11 mph 1016.2mb 67f 68f
6:18 10
mph
1016.2mb 67f 68f
6:12 10 13 mph 1016.2mb 67f 68f
6:06 11 13 mph 1016.2mb 67f 68f
6:00 10 11 mph 1016.1mb 67f 68f
5:54 10 11 mph 1016.1mb 67f 68f
5:48 9 10 mph 1016mb 67f 68f
5:42 10
mph
1016mb 67f 68f
5:36 9 11 mph 1016.1mb 67f 68f
5:30 9 13 mph 1016.1mb 68f 68f
5:24 10 13 mph 1016.1mb 68f 68f
5:18 11 14 mph 1016.1mb 68f 68f
5:12 13 16 mph 1016.2mb 68f 68f
5:06 14 16 mph 1016.2mb 68f 68f
5:00 14 16 mph 1016.1mb 68f 68f
4:54 14 16 mph 1016.1mb 68f 68f
4:48 14 16 mph 1016.1mb 68f 68f
4:42 14 15 mph 1016mb 68f 68f
4:36 14 15 mph 1016mb 68f 68f
4:30 14 16 mph 1016mb 68f 68f
4:24 14 15 mph 1016.1mb 68f 68f
4:18 14 16 mph 1016.1mb 68f 68f
4:12 14 16 mph 1016.1mb 68f 68f
4:06 14 16 mph 1016mb 69f 68f
4:00 14 16 mph 1016mb 69f 68f
3:54 14 15 mph 1016mb 69f 68f
3:48 13 15 mph 1016.1mb 69f 68f
3:42 14 16 mph 1016.1mb 69f 68f
3:36 15 17 mph 1016.1mb 69f 68f
3:30 15 17 mph 1016.1mb 69f 67f
3:24 15 16 mph 1016.2mb 69f 68f
3:18 14 16 mph 1016.3mb 69f 68f
3:12 14 15 mph 1016.3mb 69f 68f
3:06 14 15 mph 1016.4mb 69f 68f
3:00 14 15 mph 1016.5mb 69f 68f
2:54 10 11 mph 1016.6mb 69f 68f
2:48 10 11 mph 1016.7mb - -
2:42 10 11 mph 1016.8mb - -
2:36 9 11 mph 1016.9mb - -
2:30 8 10 mph 1016.9mb 69f 69f
2:24 8 10 mph 1016.9mb 69f 69f
2:18 9 10 mph 1017mb 69f 69f
2:12 8 9 mph 1017mb 69f 69f
2:06 8 10 mph 1017mb 69f 68f
2:00 9 11 mph 1017mb 70f 68f
1:54 10 13 mph 1017mb 70f 68f
1:48 11 14 mph - - -
1:42 11 14 mph - - -
1:36 11 14 mph - - -
1:30 11 13 mph 1017.2mb 70f 68f
1:24 8 11 mph 1017.2mb 70f 68f
1:18 10 13 mph 1017.3mb 70f 68f
1:12 9 11 mph 1017.3mb 70f 68f
1:06 10 13 mph 1017.4mb 70f 69f
1:00 11 13 mph 1017.4mb 69f 69f
12:54 11 14 mph 1017.4mb 69f 69f
12:48 14 16 mph 1017.4mb 69f 69f
12:42 14 15 mph 1017.5mb 69f 69f
12:36 10 13 mph 1017.5mb 69f 69f
12:30 10 11 mph 1017.5mb 69f 69f
12:24 9 10 mph 1017.6mb 69f 69f
12:18 8 9 mph 1017.6mb 69f 69f
12:12 10 14 mph 1017.6mb 69f 69f
12:06 14 16 mph 1017.6mb 69f 69f
12:00 14 15 mph 1017.7mb 69f 69f
Seg 06/27 11:54 10 14 mph 1017.7mb 69f 69f
11:48  -  mph 1017.9mb 69f 69f
11:42  -  mph 1017.8mb 69f 69f
11:36  -  mph 1017.8mb 69f 69f
11:30 14 16 mph 1017.8mb 69f 68f
11:24 13 14 mph 1017.8mb 69f 68f
11:18 11 14 mph 1017.9mb 69f 68f
11:12 11 13 mph 1018mb 69f 68f
11:06 11 14 mph 1018mb 69f 68f
11:00  -  mph - 69f 68f
10:54  -  mph - 69f 68f
10:48  -  mph 1018mb 69f -
10:42  -  mph 1018mb 69f -
10:36  -  mph 1018mb 69f -
10:30  -  mph 1017.9mb 69f -
10:24  -  mph 1017.8mb 69f -
10:18  -  mph 1017.8mb - 70f
10:12  -  mph 1017.9mb - 69f
10:06  -  mph 1017.9mb - 70f
10:00  -  mph - 69f -
9:54  -  mph - 69f -
9:48  -  mph 1017.8mb - -
9:42  -  mph 1017.9mb - -
9:36  -  mph 1017.9mb - -
9:30  -  mph 1017.9mb 70f -
9:24  -  mph 1017.8mb 70f -
9:18  -  mph 1017.7mb 70f -
9:12  -  mph 1017.7mb 70f -
9:06  -  mph 1017.6mb 70f -
9:00  -  mph 1017.5mb 70f 70f
8:54  -  mph 1017.6mb 70f 70f
8:48  -  mph 1017.5mb 70f -
8:42  -  mph 1017.5mb 70f -
8:36  -  mph 1017.4mb 70f -
8:30  -  mph 1017.3mb 70f -
8:24  -  mph 1017.3mb 70f -
8:18  -  mph 1017.3mb 70f -
8:12  -  mph 1017.3mb 70f -
8:06  -  mph 1017.3mb 70f -
8:00  -  mph 1017.4mb 70f -
7:54  -  mph 1017.4mb 69f -
7:48  -  mph 1017.4mb - -
7:42  -  mph 1017.3mb - -
7:36  -  mph 1017.4mb - -
7:30  -  mph - 69f -
7:24  -  mph - 69f -
7:18  -  mph 1017.4mb 69f -
7:12  -  mph 1017.4mb 69f -
7:06  -  mph 1017.3mb 69f -
7:00  -  mph 1017.4mb 69f -
6:54  -  mph 1017.4mb 69f -
6:48  -  mph 1017.4mb 69f -
6:42  -  mph 1017.4mb 69f -
6:36  -  mph 1017.4mb 69f -
6:30  -  mph 1017.4mb 69f -
6:24  -  mph 1017.4mb 69f -
6:18  -  mph - 69f 72f
6:12  -  mph - 69f 73f
6:06  -  mph - 69f 73f
6:00  -  mph 1017.4mb 69f -
5:54  -  mph 1017.4mb 69f -
5:48  -  mph 1017.5mb 68f 71f
5:42  -  mph 1017.6mb 68f 70f
5:36  -  mph 1017.6mb 68f 71f
5:30 16 21 mph 1017.6mb 68f 72f
5:24 16 20 mph 1017.7mb 68f 71f
5:18 17 22 mph 1017.7mb 68f 71f
5:12 20 22 mph 1017.7mb 67f 71f
5:06 16 21 mph 1017.7mb 67f 71f
5:00 20 22 mph 1017.7mb 68f 71f
4:54 20 24 mph 1017.8mb 68f 71f
4:48 20 22 mph 1017.8mb 68f 71f
4:42 16 21 mph 1017.9mb 68f 71f
4:36 15 18 mph 1018mb 68f 70f
4:30 15 18 mph 1018.1mb 68f 70f
4:24 15 17 mph 1018.2mb 68f 70f
4:18 14 18 mph 1018.1mb 68f 70f
4:12 16 18 mph 1018.2mb 68f 70f
4:06 15 17 mph 1018.2mb 68f 69f
4:00 15 17 mph 1018.2mb 69f 69f
3:54 15 18 mph 1018.2mb 69f 68f
3:48 16 18 mph 1018.2mb 69f 68f
3:42 15 18 mph 1018.2mb 69f 68f
3:36 17 20 mph 1018.3mb 69f 68f
3:30 16 18 mph 1018.3mb 69f 68f
3:24 17 21 mph 1018.3mb 69f 68f
3:18 18 22 mph 1018.4mb 69f 68f
3:12 20 23 mph 1018.4mb 69f 67f
3:06 22 24 mph 1018.4mb 69f 67f
3:00 21 26 mph 1018.3mb 69f 67f
2:54 23 25 mph 1018.3mb 69f 67f
2:48  -  mph 1018.3mb 69f 67f
2:42  -  mph 1018.3mb 69f 68f
2:36  -  mph 1018.3mb 69f 68f
2:30 21 24 mph 1018.3mb 69f 68f
2:24 22 24 mph 1018.3mb 69f 68f
2:18 22 26 mph 1018.3mb 69f 67f
2:12 22 25 mph 1018.3mb 69f 68f
2:06 22 25 mph 1018.4mb 69f 68f
2:00 21 23 mph 1018.4mb 69f 68f
1:54 20 26 mph 1018.4mb 69f 68f
1:48 21 23 mph 1018.4mb 69f 68f
1:42 20 24 mph 1018.5mb 69f 68f
1:36 20 24 mph 1018.5mb 69f 68f
1:30 21 24 mph 1018.5mb 69f 68f
1:24 22 24 mph 1018.7mb 69f 68f
1:18 20 23 mph 1018.7mb 69f 68f
1:12 20 22 mph 1018.8mb 69f 68f
1:06 20 22 mph 1018.8mb 69f 69f
1:00 20 22 mph 1018.9mb 69f 68f
12:54 20 22 mph 1019mb 69f 68f
12:48 20 22 mph 1019mb 69f 68f
12:42 21 24 mph 1019.1mb 69f 68f
12:36 20 23 mph 1019.2mb 69f 68f
12:30 20 22 mph 1019.2mb 69f 68f
12:24 20 23 mph 1019.2mb 69f 68f
12:18 20 23 mph 1019.3mb 69f 68f
12:12 21 25 mph 1019.3mb 69f 68f
12:06 22 24 mph 1019.4mb 69f 68f
12:00 22 25 mph 1019.4mb 69f 68f
11:54 22 24 mph 1019.4mb 69f 68f
11:48 23 28 mph 1019.4mb 69f 68f
11:42 22 25 mph 1019.5mb 69f 69f
11:36 23 25 mph 1019.5mb 69f 69f
11:30 22 24 mph 1019.5mb 69f 69f
11:24 21 23 mph 1019.5mb 69f 69f
11:18 18 21 mph 1019.5mb 69f 70f
11:12 16 18 mph 1019.5mb 69f 71f
11:06 13 14 mph 1019.4mb 69f 73f
11:00 14 16 mph 1019.3mb 69f 74f
10:54 14 16 mph 1019.2mb 69f 73f
10:48 13 15 mph 1019.2mb 69f 73f
10:42 15 17 mph 1019.3mb 69f 73f
10:36 14 16 mph 1019.3mb 69f 73f
10:30 14 15 mph 1019.4mb 68f 73f
10:24 10 13 mph 1019.5mb 68f 73f
10:18 9 11 mph 1019.6mb 68f 73f
10:12 9 13 mph 1019.6mb 68f 73f
10:06 10 11 mph 1019.7mb 68f 73f
10:00 9 11 mph 1019.7mb 68f 71f
9:54 11 14 mph 1019.7mb 68f 71f
9:48 13 15 mph 1019.6mb 68f 69f
9:42 14 18 mph 1019.7mb 68f 68f
9:36 15 17 mph 1019.9mb 68f 68f
9:30 14 16 mph 1020mb 68f 69f
9:24 13 15 mph 1020.2mb 68f 69f
9:18 13 14 mph 1020.3mb 68f 70f
9:12 7 9 mph 1020.3mb 68f 71f
9:06 7 10 mph 1020.3mb 68f 71f
9:00 8 10 mph 1020.2mb 68f 71f
8:54 9 10 mph 1020.3mb 68f 70f
8:48 10 11 mph 1020.3mb 68f 70f
8:42 10 11 mph 1020.3mb 68f 70f
8:36 10 13 mph 1020.3mb 68f 70f
8:30 10 13 mph 1020.4mb 68f 69f
8:24 10 14 mph 1020.3mb 67f 69f
8:18 11 14 mph 1020.3mb 67f 69f
8:12 10 13 mph 1020.4mb 67f 69f
8:06 11 14 mph 1020.4mb 67f 69f
8:00 11 14 mph 1020.4mb 67f 68f
7:54 14 16 mph 1020.4mb 67f 68f
7:48 13 15 mph 1020.4mb 67f 68f
7:42 14 16 mph 1020.5mb 67f 68f
7:36 13 14 mph 1020.5mb 67f 68f
7:30 13 14 mph 1020.5mb 67f 68f
7:24 11 14 mph 1020.6mb 67f 67f
7:18 11 14 mph 1020.5mb 67f 67f
7:12 11 14 mph 1020.6mb 67f 67f
7:06 14 15 mph 1020.7mb 67f 67f
7:00 11 14 mph 1020.8mb 67f 67f
6:54 11 13 mph 1020.8mb 67f 66f
6:48 11 15 mph 1020.7mb 67f 66f
6:42 14 15 mph 1020.7mb 67f 66f
6:36 14 15 mph 1020.7mb 68f 66f
6:30 13 14 mph 1020.7mb 68f 66f
6:24 11 14 mph 1020.7mb 68f 65f
6:18 11 14 mph 1020.7mb 67f 65f
6:12 9 11 mph 1020.7mb 67f 65f
6:06 9 13 mph 1020.6mb 67f 65f
6:00 10 13 mph 1020.7mb 67f 65f
5:54 11 14 mph 1020.6mb 67f 64f
5:48 10 11 mph 1020.6mb 67f 64f
5:42 8 10 mph 1020.6mb 67f 64f
5:36 10 11 mph 1020.5mb 67f 64f
5:30 9 10 mph 1020.5mb 67f 64f
5:24 8 10 mph 1020.3mb 67f 64f
5:18 9 10 mph 1020.3mb 67f 64f
5:12 9 11 mph 1020.4mb 67f 63f
5:06 9 11 mph 1020.4mb 67f 64f
5:00 9 10 mph 1020.3mb 67f 63f
4:54 9 10 mph 1020.4mb 67f 64f
4:48 9 10 mph 1020.4mb 67f 64f
4:42 9 10 mph 1020.4mb 67f 64f
4:36 7 8 mph 1020.5mb 67f 64f
4:30 8 10 mph 1020.4mb 67f 64f
4:24 10 14 mph 1020.4mb 67f 64f
4:18 11 14 mph 1020.4mb 67f 64f
4:12 11 13 mph 1020.3mb 67f 64f
4:06 11 14 mph 1020.4mb 67f 64f
4:00 10 13 mph 1020.4mb 67f 64f
3:54 10 13 mph 1020.5mb 68f 64f
3:48 10 14 mph 1020.5mb 68f 64f
3:42 11 14 mph 1020.5mb 68f 64f
3:36 11 13 mph 1020.4mb 68f 64f
3:30 10 14 mph 1020.4mb 68f 64f
3:24 11 13 mph 1020.5mb 68f 64f
3:18 10 11 mph 1020.6mb 68f 63f
3:12 10 13 mph 1020.6mb 68f 63f
3:06 10 13 mph 1020.6mb 68f 63f
3:00 11 14 mph 1020.5mb 68f 64f
2:54 11 13 mph 1020.6mb 69f 64f
2:48 11 13 mph 1020.6mb 69f -
2:42 11 13 mph 1020.5mb 69f -
2:36 9 11 mph 1020.5mb 69f -
2:30 9 10 mph 1020.5mb 69f 63f
2:24 8 10 mph 1020.5mb 69f 63f
2:18 8 10 mph 1020.5mb 69f 63f
2:12 9 11 mph 1020.5mb 69f 63f
2:06 10 11 mph 1020.5mb 69f 64f
2:00 10 11 mph 1020.5mb 69f 64f
1:54 9 11 mph 1020.4mb 69f 63f
1:48 9 11 mph 1020.5mb - -
1:42 9 11 mph 1020.5mb - -
1:36 9 10 mph 1020.6mb - -
1:30 9 10 mph 1020.6mb 70f 64f
1:24 9 11 mph 1020.6mb 70f 64f
1:18 9 11 mph 1020.6mb 70f 64f
1:12 9 11 mph 1020.6mb 71f 64f
1:06 9 10 mph 1020.6mb 71f 64f
1:00 9 10 mph 1020.6mb 71f 63f
12:54 9 10 mph 1020.6mb 71f 63f
12:48 9 10 mph 1020.7mb 71f 64f
12:42 9 11 mph 1020.7mb 71f 63f
12:36 10 11 mph 1020.7mb 71f 63f
12:30 10 11 mph 1020.7mb 71f 64f
12:24 10 11 mph 1020.8mb 71f 64f
12:18 8 9 mph 1020.8mb 71f 64f
12:12 8 9 mph 1020.9mb 71f 64f
12:06 8 9 mph 1021mb 71f 64f
12:00 8 9 mph 1020.9mb 71f 64f
Dom 06/26 11:54 8 10 mph 1020.8mb 71f 64f
11:48 8 9 mph 1020.8mb 71f 64f
11:42 8 9 mph 1020.8mb 71f 64f
11:36 8 9 mph 1020.9mb 71f 64f
11:30 9
mph
1020.9mb 71f 65f
11:24 9
mph
1020.9mb 71f 65f
11:18 9 10 mph 1020.9mb 71f 65f
11:12 9 10 mph 1020.9mb 71f 65f
11:06 10 13 mph 1020.8mb 71f 65f
11:00  -  mph 1020.7mb 71f -
10:54  -  mph 1020.7mb 71f -
10:48  -  mph - 71f -
10:42  -  mph - 70f -
10:36  -  mph - 70f -
10:30  -  mph 1020.9mb 70f -
10:24  -  mph 1020.9mb 70f -
10:18  -  mph 1021mb 70f 65f
10:12  -  mph 1021.1mb 70f 65f
10:06  -  mph 1021mb 70f 66f
10:00  -  mph - 70f -
9:54  -  mph - 70f -
9:48  -  mph - 70f -
9:42  -  mph - 69f -
9:36  -  mph - 69f -
9:30  -  mph 1021.2mb 70f -
9:24  -  mph 1021.1mb 70f -
9:18  -  mph 1021.1mb 70f -
9:12  -  mph 1021.1mb 71f -
9:06  -  mph 1021mb 71f -
9:00  -  mph 1021mb 71f -
8:54  -  mph 1021mb 71f -
8:48  -  mph - 71f -
8:42  -  mph - 71f -
8:36  -  mph - 71f -
8:30  -  mph - 71f -
8:24  -  mph - 71f -
8:18  -  mph 1021.3mb 71f 69f
8:12  -  mph 1021.3mb 71f 69f
8:06  -  mph 1021.3mb 71f 69f
8:00  -  mph - 71f -
7:54  -  mph - 71f -
7:48  -  mph - 71f -
7:42  -  mph - 71f -
7:36  -  mph - 71f -
7:30 11 14 mph 1021.6mb - -
7:24 11 14 mph 1021.7mb - -
7:18  -  mph 1021.7mb 71f 71f
7:12  -  mph 1021.6mb 71f 71f
7:06  -  mph 1021.6mb 71f 71f
7:00 11 16 mph 1021.6mb 71f -
6:54 14 15 mph 1021.7mb 71f -
6:48  -  mph - 71f -
6:42  -  mph - 71f -
6:36  -  mph - 70f -
6:30  -  mph - 70f -
6:24  -  mph - 70f -
6:18  -  mph 1021.9mb 70f 71f
6:12  -  mph 1022mb 70f 71f
6:06  -  mph 1022mb 70f 72f
6:00  -  mph 1022mb 70f -
5:54  -  mph 1022.1mb 70f -
5:48  -  mph 1022mb 70f -
5:42  -  mph 1022.2mb 70f -
5:36  -  mph 1022.2mb 70f -
5:30 14 16 mph 1022.3mb 70f 69f
5:24 15 17 mph 1022.2mb 69f 69f
5:18 14 17 mph 1022.3mb 69f 69f
5:12 15 17 mph 1022.4mb 69f 69f
5:06 15 18 mph 1022.4mb 69f 69f
5:00 15 17 mph 1022.5mb 69f 69f
4:54 15 17 mph 1022.5mb 69f 69f
4:48 16 18 mph 1022.5mb 69f 69f
4:42 16 18 mph 1022.5mb 69f 69f
4:36 16 18 mph 1022.5mb 69f 69f
4:30 16 18 mph 1022.5mb 69f 68f
4:24 17 20 mph 1022.5mb 69f 68f
4:18 18 21 mph 1022.5mb 69f 68f
4:12 18 21 mph 1022.6mb 68f 68f
4:06 17 23 mph 1022.7mb 68f 68f
4:00 22 23 mph 1022.6mb 68f 68f
3:54 21 24 mph 1022.7mb 68f 68f
3:48 18 23 mph 1022.7mb 68f 68f
3:42 20 23 mph 1022.8mb 68f 68f
3:36 18 22 mph 1022.8mb 67f 67f
3:30 18 22 mph 1022.9mb 68f 67f
3:24 21 22 mph 1023mb 68f 67f
3:18 20 22 mph 1023mb 68f 67f
3:12 20 23 mph 1023.1mb 68f 67f
3:06 21 23 mph 1023.2mb 68f 67f
3:00 20 23 mph 1023.2mb 68f 67f
2:54 22 23 mph 1023.2mb 67f 67f
2:48 21 23 mph 1023.1mb 67f 67f
2:42 20 23 mph 1023.2mb 67f 67f
2:36 21 24 mph 1023.2mb 67f 67f
2:30 21 23 mph 1023.3mb 67f 67f
2:24 21 24 mph 1023.3mb 67f 67f
2:18 20 22 mph 1023.2mb 67f 67f
2:12 21 22 mph 1023.2mb 67f 67f
2:06 20 22 mph 1023.3mb 67f 67f
2:00 18 21 mph 1023.4mb 68f 67f
1:54 20 22 mph 1023.4mb 68f 67f
1:48 20 22 mph 1023.4mb 68f 67f
1:42 18 22 mph 1023.4mb 69f 67f
1:36 20 22 mph 1023.5mb 69f 66f
1:30 21 22 mph 1023.5mb 69f 67f
1:24 21 22 mph 1023.5mb 70f 66f
1:18 20 22 mph 1023.5mb 70f 66f
1:12 17 21 mph 1023.5mb 70f 67f
1:06 18 21 mph 1023.5mb 70f 66f
1:00 18 22 mph 1023.5mb 70f 67f
12:54 20 22 mph 1023.4mb 70f 67f
12:48 18 22 mph 1023.5mb 70f 67f
12:42 18 21 mph 1023.5mb 70f 66f
12:36 17 20 mph 1023.6mb 70f 66f